sensor_id;sensor_type;location;lat;lon;timestamp;P1;durP1;ratioP1;P2;durP2;ratioP2
22794;SDS011;11564;50.920;11.612;2023-04-07T00:00:27;9.37;;;8.37;;
22794;SDS011;11564;50.920;11.612;2023-04-07T00:02:53;13.40;;;9.93;;
22794;SDS011;11564;50.920;11.612;2023-04-07T00:05:19;12.70;;;10.03;;
22794;SDS011;11564;50.920;11.612;2023-04-07T00:07:45;11.73;;;9.87;;
22794;SDS011;11564;50.920;11.612;2023-04-07T00:10:10;14.07;;;9.67;;
22794;SDS011;11564;50.920;11.612;2023-04-07T00:12:36;12.90;;;9.60;;
22794;SDS011;11564;50.920;11.612;2023-04-07T00:15:02;11.10;;;9.30;;
22794;SDS011;11564;50.920;11.612;2023-04-07T00:17:28;12.00;;;9.50;;
22794;SDS011;11564;50.920;11.612;2023-04-07T00:19:53;13.80;;;8.77;;
22794;SDS011;11564;50.920;11.612;2023-04-07T00:22:19;13.07;;;8.70;;
22794;SDS011;11564;50.920;11.612;2023-04-07T00:24:44;18.73;;;9.70;;
22794;SDS011;11564;50.920;11.612;2023-04-07T00:27:10;12.10;;;9.87;;
22794;SDS011;11564;50.920;11.612;2023-04-07T00:29:36;14.20;;;9.67;;
22794;SDS011;11564;50.920;11.612;2023-04-07T00:32:01;11.60;;;9.60;;
22794;SDS011;11564;50.920;11.612;2023-04-07T00:34:27;15.03;;;10.80;;
22794;SDS011;11564;50.920;11.612;2023-04-07T00:36:52;14.23;;;10.60;;
22794;SDS011;11564;50.920;11.612;2023-04-07T00:39:18;12.40;;;9.90;;
22794;SDS011;11564;50.920;11.612;2023-04-07T00:41:45;11.63;;;9.10;;
22794;SDS011;11564;50.920;11.612;2023-04-07T00:44:11;11.40;;;9.40;;
22794;SDS011;11564;50.920;11.612;2023-04-07T00:46:38;19.10;;;10.87;;
22794;SDS011;11564;50.920;11.612;2023-04-07T00:49:05;13.93;;;10.17;;
22794;SDS011;11564;50.920;11.612;2023-04-07T00:51:31;13.53;;;9.80;;
22794;SDS011;11564;50.920;11.612;2023-04-07T00:53:56;14.00;;;9.77;;
22794;SDS011;11564;50.920;11.612;2023-04-07T00:56:23;13.27;;;9.10;;
22794;SDS011;11564;50.920;11.612;2023-04-07T00:58:48;11.30;;;9.23;;
22794;SDS011;11564;50.920;11.612;2023-04-07T01:04:31;12.47;;;9.37;;
22794;SDS011;11564;50.920;11.612;2023-04-07T01:07:07;12.83;;;9.30;;
22794;SDS011;11564;50.920;11.612;2023-04-07T01:09:39;13.10;;;9.37;;
22794;SDS011;11564;50.920;11.612;2023-04-07T01:14:45;10.80;;;8.57;;
22794;SDS011;11564;50.920;11.612;2023-04-07T01:17:15;12.00;;;9.10;;
22794;SDS011;11564;50.920;11.612;2023-04-07T01:19:44;12.90;;;9.97;;
22794;SDS011;11564;50.920;11.612;2023-04-07T01:22:15;13.20;;;9.20;;
22794;SDS011;11564;50.920;11.612;2023-04-07T01:27:42;16.00;;;9.90;;
22794;SDS011;11564;50.920;11.612;2023-04-07T01:30:17;12.20;;;9.17;;
22794;SDS011;11564;50.920;11.612;2023-04-07T01:32:44;9.23;;;7.80;;
22794;SDS011;11564;50.920;11.612;2023-04-07T01:35:14;11.47;;;8.43;;
22794;SDS011;11564;50.920;11.612;2023-04-07T01:37:41;10.20;;;8.10;;
22794;SDS011;11564;50.920;11.612;2023-04-07T01:40:10;15.50;;;9.23;;
22794;SDS011;11564;50.920;11.612;2023-04-07T01:42:36;12.40;;;8.73;;
22794;SDS011;11564;50.920;11.612;2023-04-07T01:45:03;10.30;;;8.47;;
22794;SDS011;11564;50.920;11.612;2023-04-07T01:47:31;13.10;;;8.27;;
22794;SDS011;11564;50.920;11.612;2023-04-07T01:50:01;9.93;;;8.60;;
22794;SDS011;11564;50.920;11.612;2023-04-07T01:52:37;10.93;;;8.93;;
22794;SDS011;11564;50.920;11.612;2023-04-07T01:55:04;13.93;;;10.00;;
22794;SDS011;11564;50.920;11.612;2023-04-07T01:57:31;12.97;;;9.50;;
22794;SDS011;11564;50.920;11.612;2023-04-07T01:59:57;14.30;;;8.97;;
22794;SDS011;11564;50.920;11.612;2023-04-07T02:02:22;11.00;;;9.10;;
22794;SDS011;11564;50.920;11.612;2023-04-07T02:04:53;11.33;;;8.80;;
22794;SDS011;11564;50.920;11.612;2023-04-07T02:07:23;9.90;;;8.03;;
22794;SDS011;11564;50.920;11.612;2023-04-07T02:10:09;13.07;;;10.10;;
22794;SDS011;11564;50.920;11.612;2023-04-07T02:12:38;11.30;;;8.20;;
22794;SDS011;11564;50.920;11.612;2023-04-07T02:15:05;12.03;;;9.03;;
22794;SDS011;11564;50.920;11.612;2023-04-07T02:17:33;10.70;;;9.17;;
22794;SDS011;11564;50.920;11.612;2023-04-07T02:20:04;10.90;;;9.07;;
22794;SDS011;11564;50.920;11.612;2023-04-07T02:22:32;16.00;;;9.10;;
22794;SDS011;11564;50.920;11.612;2023-04-07T02:24:57;13.70;;;8.63;;
22794;SDS011;11564;50.920;11.612;2023-04-07T02:27:23;11.40;;;8.07;;
22794;SDS011;11564;50.920;11.612;2023-04-07T02:29:49;10.50;;;8.60;;
22794;SDS011;11564;50.920;11.612;2023-04-07T02:32:15;13.87;;;8.53;;
22794;SDS011;11564;50.920;11.612;2023-04-07T02:34:41;12.67;;;8.97;;
22794;SDS011;11564;50.920;11.612;2023-04-07T02:37:07;11.53;;;8.83;;
22794;SDS011;11564;50.920;11.612;2023-04-07T02:39:33;14.23;;;9.73;;
22794;SDS011;11564;50.920;11.612;2023-04-07T02:41:58;10.40;;;7.73;;
22794;SDS011;11564;50.920;11.612;2023-04-07T02:44:24;8.93;;;8.00;;
22794;SDS011;11564;50.920;11.612;2023-04-07T02:46:50;10.43;;;8.77;;
22794;SDS011;11564;50.920;11.612;2023-04-07T02:49:15;9.30;;;8.30;;
22794;SDS011;11564;50.920;11.612;2023-04-07T02:51:41;9.40;;;8.13;;
22794;SDS011;11564;50.920;11.612;2023-04-07T02:54:07;11.50;;;9.80;;
22794;SDS011;11564;50.920;11.612;2023-04-07T02:56:32;12.43;;;8.47;;
22794;SDS011;11564;50.920;11.612;2023-04-07T02:58:58;13.13;;;8.80;;
22794;SDS011;11564;50.920;11.612;2023-04-07T03:01:24;11.87;;;9.13;;
22794;SDS011;11564;50.920;11.612;2023-04-07T03:03:49;12.63;;;9.53;;
22794;SDS011;11564;50.920;11.612;2023-04-07T03:06:15;10.37;;;8.60;;
22794;SDS011;11564;50.920;11.612;2023-04-07T03:08:40;15.03;;;9.10;;
22794;SDS011;11564;50.920;11.612;2023-04-07T03:11:06;12.07;;;9.30;;
22794;SDS011;11564;50.920;11.612;2023-04-07T03:13:32;11.40;;;8.70;;
22794;SDS011;11564;50.920;11.612;2023-04-07T03:15:57;17.23;;;8.67;;
22794;SDS011;11564;50.920;11.612;2023-04-07T03:18:23;10.17;;;7.93;;
22794;SDS011;11564;50.920;11.612;2023-04-07T03:20:48;8.10;;;6.90;;
22794;SDS011;11564;50.920;11.612;2023-04-07T03:23:16;11.90;;;7.97;;
22794;SDS011;11564;50.920;11.612;2023-04-07T03:25:42;10.60;;;8.67;;
22794;SDS011;11564;50.920;11.612;2023-04-07T03:28:08;12.90;;;8.27;;
22794;SDS011;11564;50.920;11.612;2023-04-07T03:30:35;14.03;;;9.07;;
22794;SDS011;11564;50.920;11.612;2023-04-07T03:33:01;12.67;;;8.97;;
22794;SDS011;11564;50.920;11.612;2023-04-07T03:35:27;16.17;;;9.10;;
22794;SDS011;11564;50.920;11.612;2023-04-07T03:37:52;9.03;;;8.10;;
22794;SDS011;11564;50.920;11.612;2023-04-07T03:40:18;13.80;;;9.13;;
22794;SDS011;11564;50.920;11.612;2023-04-07T03:42:44;14.50;;;9.00;;
22794;SDS011;11564;50.920;11.612;2023-04-07T03:45:10;15.17;;;9.00;;
22794;SDS011;11564;50.920;11.612;2023-04-07T03:47:36;10.20;;;7.33;;
22794;SDS011;11564;50.920;11.612;2023-04-07T03:50:01;11.67;;;8.43;;
22794;SDS011;11564;50.920;11.612;2023-04-07T03:52:27;11.20;;;9.23;;
22794;SDS011;11564;50.920;11.612;2023-04-07T03:54:53;10.73;;;8.67;;
22794;SDS011;11564;50.920;11.612;2023-04-07T03:57:18;12.70;;;9.93;;
22794;SDS011;11564;50.920;11.612;2023-04-07T03:59:46;15.13;;;9.50;;
22794;SDS011;11564;50.920;11.612;2023-04-07T04:02:15;16.73;;;10.40;;
22794;SDS011;11564;50.920;11.612;2023-04-07T04:04:41;11.10;;;9.30;;
22794;SDS011;11564;50.920;11.612;2023-04-07T04:07:06;14.23;;;9.70;;
22794;SDS011;11564;50.920;11.612;2023-04-07T04:09:32;13.13;;;10.03;;
22794;SDS011;11564;50.920;11.612;2023-04-07T04:11:57;13.47;;;10.10;;
22794;SDS011;11564;50.920;11.612;2023-04-07T04:14:23;11.83;;;9.90;;
22794;SDS011;11564;50.920;11.612;2023-04-07T04:16:49;9.50;;;8.03;;
22794;SDS011;11564;50.920;11.612;2023-04-07T04:19:14;11.43;;;9.17;;
22794;SDS011;11564;50.920;11.612;2023-04-07T04:21:40;13.90;;;9.33;;
22794;SDS011;11564;50.920;11.612;2023-04-07T04:24:06;13.03;;;9.30;;
22794;SDS011;11564;50.920;11.612;2023-04-07T04:26:31;14.87;;;8.97;;
22794;SDS011;11564;50.920;11.612;2023-04-07T04:28:57;13.63;;;9.90;;
22794;SDS011;11564;50.920;11.612;2023-04-07T04:31:22;13.90;;;10.47;;
22794;SDS011;11564;50.920;11.612;2023-04-07T04:33:48;13.17;;;9.30;;
22794;SDS011;11564;50.920;11.612;2023-04-07T04:36:14;10.80;;;9.50;;
22794;SDS011;11564;50.920;11.612;2023-04-07T04:38:40;9.97;;;8.50;;
22794;SDS011;11564;50.920;11.612;2023-04-07T04:41:05;10.13;;;9.03;;
22794;SDS011;11564;50.920;11.612;2023-04-07T04:43:31;14.87;;;9.27;;
22794;SDS011;11564;50.920;11.612;2023-04-07T04:45:57;12.73;;;8.90;;
22794;SDS011;11564;50.920;11.612;2023-04-07T04:48:23;11.83;;;8.77;;
22794;SDS011;11564;50.920;11.612;2023-04-07T04:50:48;13.67;;;8.80;;
22794;SDS011;11564;50.920;11.612;2023-04-07T04:53:14;10.37;;;9.10;;
22794;SDS011;11564;50.920;11.612;2023-04-07T04:55:40;10.77;;;9.37;;
22794;SDS011;11564;50.920;11.612;2023-04-07T04:58:08;10.97;;;8.30;;
22794;SDS011;11564;50.920;11.612;2023-04-07T05:00:33;12.03;;;7.63;;
22794;SDS011;11564;50.920;11.612;2023-04-07T05:02:59;12.33;;;8.97;;
22794;SDS011;11564;50.920;11.612;2023-04-07T05:05:25;12.40;;;9.20;;
22794;SDS011;11564;50.920;11.612;2023-04-07T05:07:50;13.77;;;9.00;;
22794;SDS011;11564;50.920;11.612;2023-04-07T05:10:16;13.70;;;9.50;;
22794;SDS011;11564;50.920;11.612;2023-04-07T05:12:41;11.33;;;8.17;;
22794;SDS011;11564;50.920;11.612;2023-04-07T05:15:07;12.50;;;9.30;;
22794;SDS011;11564;50.920;11.612;2023-04-07T05:17:33;11.63;;;8.40;;
22794;SDS011;11564;50.920;11.612;2023-04-07T05:19:59;19.83;;;9.43;;
22794;SDS011;11564;50.920;11.612;2023-04-07T05:22:24;11.83;;;8.60;;
22794;SDS011;11564;50.920;11.612;2023-04-07T05:24:50;11.77;;;8.73;;
22794;SDS011;11564;50.920;11.612;2023-04-07T05:27:15;9.80;;;8.03;;
22794;SDS011;11564;50.920;11.612;2023-04-07T05:29:41;10.40;;;8.60;;
22794;SDS011;11564;50.920;11.612;2023-04-07T05:32:07;10.47;;;8.73;;
22794;SDS011;11564;50.920;11.612;2023-04-07T05:34:32;10.93;;;8.17;;
22794;SDS011;11564;50.920;11.612;2023-04-07T05:36:58;11.73;;;8.27;;
22794;SDS011;11564;50.920;11.612;2023-04-07T05:39:24;9.10;;;7.47;;
22794;SDS011;11564;50.920;11.612;2023-04-07T05:41:50;9.30;;;7.23;;
22794;SDS011;11564;50.920;11.612;2023-04-07T05:44:16;12.83;;;8.90;;
22794;SDS011;11564;50.920;11.612;2023-04-07T05:46:41;11.77;;;8.87;;
22794;SDS011;11564;50.920;11.612;2023-04-07T05:49:07;10.70;;;7.50;;
22794;SDS011;11564;50.920;11.612;2023-04-07T05:51:32;12.10;;;8.90;;
22794;SDS011;11564;50.920;11.612;2023-04-07T05:54:00;11.10;;;8.87;;
22794;SDS011;11564;50.920;11.612;2023-04-07T05:56:27;11.27;;;8.40;;
22794;SDS011;11564;50.920;11.612;2023-04-07T05:58:53;22.23;;;9.57;;
22794;SDS011;11564;50.920;11.612;2023-04-07T06:01:19;10.13;;;7.33;;
22794;SDS011;11564;50.920;11.612;2023-04-07T06:03:45;11.10;;;8.63;;
22794;SDS011;11564;50.920;11.612;2023-04-07T06:06:10;10.73;;;8.20;;
22794;SDS011;11564;50.920;11.612;2023-04-07T06:08:36;15.00;;;8.43;;
22794;SDS011;11564;50.920;11.612;2023-04-07T06:11:01;9.40;;;8.13;;
22794;SDS011;11564;50.920;11.612;2023-04-07T06:13:27;10.87;;;8.77;;
22794;SDS011;11564;50.920;11.612;2023-04-07T06:15:56;14.60;;;9.27;;
22794;SDS011;11564;50.920;11.612;2023-04-07T06:18:21;12.23;;;8.70;;
22794;SDS011;11564;50.920;11.612;2023-04-07T06:20:47;13.13;;;9.90;;
22794;SDS011;11564;50.920;11.612;2023-04-07T06:23:13;11.67;;;8.40;;
22794;SDS011;11564;50.920;11.612;2023-04-07T06:25:39;12.00;;;9.30;;
22794;SDS011;11564;50.920;11.612;2023-04-07T06:28:05;13.20;;;9.23;;
22794;SDS011;11564;50.920;11.612;2023-04-07T06:30:30;13.37;;;9.67;;
22794;SDS011;11564;50.920;11.612;2023-04-07T06:32:56;12.30;;;8.97;;
22794;SDS011;11564;50.920;11.612;2023-04-07T06:35:22;14.90;;;9.00;;
22794;SDS011;11564;50.920;11.612;2023-04-07T06:37:50;9.83;;;8.20;;
22794;SDS011;11564;50.920;11.612;2023-04-07T06:40:16;14.07;;;8.70;;
22794;SDS011;11564;50.920;11.612;2023-04-07T06:42:42;8.93;;;8.10;;
22794;SDS011;11564;50.920;11.612;2023-04-07T06:45:08;9.83;;;8.83;;
22794;SDS011;11564;50.920;11.612;2023-04-07T06:47:34;12.10;;;8.90;;
22794;SDS011;11564;50.920;11.612;2023-04-07T06:49:59;11.60;;;8.70;;
22794;SDS011;11564;50.920;11.612;2023-04-07T06:52:25;12.33;;;9.30;;
22794;SDS011;11564;50.920;11.612;2023-04-07T06:54:51;12.10;;;9.63;;
22794;SDS011;11564;50.920;11.612;2023-04-07T06:57:16;9.43;;;8.37;;
22794;SDS011;11564;50.920;11.612;2023-04-07T06:59:42;10.80;;;9.40;;
22794;SDS011;11564;50.920;11.612;2023-04-07T07:02:07;15.47;;;8.70;;
22794;SDS011;11564;50.920;11.612;2023-04-07T07:04:33;10.63;;;9.00;;
22794;SDS011;11564;50.920;11.612;2023-04-07T07:06:59;10.00;;;8.30;;
22794;SDS011;11564;50.920;11.612;2023-04-07T07:09:25;11.97;;;8.77;;
22794;SDS011;11564;50.920;11.612;2023-04-07T07:11:51;8.60;;;7.57;;
22794;SDS011;11564;50.920;11.612;2023-04-07T07:14:17;9.73;;;8.47;;
22794;SDS011;11564;50.920;11.612;2023-04-07T07:16:43;13.93;;;9.50;;
22794;SDS011;11564;50.920;11.612;2023-04-07T07:19:08;11.83;;;8.10;;
22794;SDS011;11564;50.920;11.612;2023-04-07T07:21:34;10.83;;;8.40;;
22794;SDS011;11564;50.920;11.612;2023-04-07T07:24:00;11.03;;;6.90;;
22794;SDS011;11564;50.920;11.612;2023-04-07T07:26:26;8.63;;;7.73;;
22794;SDS011;11564;50.920;11.612;2023-04-07T07:28:55;11.73;;;8.90;;
22794;SDS011;11564;50.920;11.612;2023-04-07T07:31:20;13.23;;;7.63;;
22794;SDS011;11564;50.920;11.612;2023-04-07T07:33:46;12.80;;;8.67;;
22794;SDS011;11564;50.920;11.612;2023-04-07T07:36:13;14.13;;;8.87;;
22794;SDS011;11564;50.920;11.612;2023-04-07T07:38:39;9.47;;;8.30;;
22794;SDS011;11564;50.920;11.612;2023-04-07T07:41:05;9.60;;;7.40;;
22794;SDS011;11564;50.920;11.612;2023-04-07T07:43:31;9.43;;;7.50;;
22794;SDS011;11564;50.920;11.612;2023-04-07T07:45:57;8.53;;;7.60;;
22794;SDS011;11564;50.920;11.612;2023-04-07T07:48:23;9.77;;;7.30;;
22794;SDS011;11564;50.920;11.612;2023-04-07T07:50:49;7.87;;;7.13;;
22794;SDS011;11564;50.920;11.612;2023-04-07T07:53:16;9.90;;;7.67;;
22794;SDS011;11564;50.920;11.612;2023-04-07T07:55:42;9.00;;;8.17;;
22794;SDS011;11564;50.920;11.612;2023-04-07T07:58:07;8.73;;;7.57;;
22794;SDS011;11564;50.920;11.612;2023-04-07T08:00:33;10.77;;;8.27;;
22794;SDS011;11564;50.920;11.612;2023-04-07T08:02:59;13.20;;;8.23;;
22794;SDS011;11564;50.920;11.612;2023-04-07T08:05:24;8.90;;;7.60;;
22794;SDS011;11564;50.920;11.612;2023-04-07T08:07:51;7.70;;;6.90;;
22794;SDS011;11564;50.920;11.612;2023-04-07T08:10:17;8.30;;;7.17;;
22794;SDS011;11564;50.920;11.612;2023-04-07T08:12:44;15.57;;;8.90;;
22794;SDS011;11564;50.920;11.612;2023-04-07T08:15:10;10.43;;;8.33;;
22794;SDS011;11564;50.920;11.612;2023-04-07T08:17:36;12.37;;;8.60;;
22794;SDS011;11564;50.920;11.612;2023-04-07T08:20:01;9.43;;;7.87;;
22794;SDS011;11564;50.920;11.612;2023-04-07T08:22:28;16.13;;;7.80;;
22794;SDS011;11564;50.920;11.612;2023-04-07T08:24:53;12.23;;;8.47;;
22794;SDS011;11564;50.920;11.612;2023-04-07T08:27:19;10.70;;;8.63;;
22794;SDS011;11564;50.920;11.612;2023-04-07T08:29:45;11.40;;;8.60;;
22794;SDS011;11564;50.920;11.612;2023-04-07T08:32:22;10.10;;;8.07;;
22794;SDS011;11564;50.920;11.612;2023-04-07T08:34:47;10.67;;;8.63;;
22794;SDS011;11564;50.920;11.612;2023-04-07T08:37:13;11.87;;;8.93;;
22794;SDS011;11564;50.920;11.612;2023-04-07T08:39:38;11.23;;;8.07;;
22794;SDS011;11564;50.920;11.612;2023-04-07T08:42:04;10.97;;;7.93;;
22794;SDS011;11564;50.920;11.612;2023-04-07T08:44:32;9.77;;;7.63;;
22794;SDS011;11564;50.920;11.612;2023-04-07T08:47:00;10.70;;;8.37;;
22794;SDS011;11564;50.920;11.612;2023-04-07T08:49:31;10.67;;;8.40;;
22794;SDS011;11564;50.920;11.612;2023-04-07T08:52:00;16.90;;;9.60;;
22794;SDS011;11564;50.920;11.612;2023-04-07T08:54:30;9.90;;;8.63;;
22794;SDS011;11564;50.920;11.612;2023-04-07T08:56:57;12.97;;;9.20;;
22794;SDS011;11564;50.920;11.612;2023-04-07T08:59:25;12.23;;;9.53;;
22794;SDS011;11564;50.920;11.612;2023-04-07T09:01:53;10.63;;;8.77;;
22794;SDS011;11564;50.920;11.612;2023-04-07T09:04:19;10.80;;;8.00;;
22794;SDS011;11564;50.920;11.612;2023-04-07T09:06:46;11.07;;;9.00;;
22794;SDS011;11564;50.920;11.612;2023-04-07T09:09:13;10.53;;;9.00;;
22794;SDS011;11564;50.920;11.612;2023-04-07T09:11:39;10.60;;;8.60;;
22794;SDS011;11564;50.920;11.612;2023-04-07T09:14:05;11.57;;;8.67;;
22794;SDS011;11564;50.920;11.612;2023-04-07T09:16:31;12.83;;;8.40;;
22794;SDS011;11564;50.920;11.612;2023-04-07T09:18:57;11.50;;;9.40;;
22794;SDS011;11564;50.920;11.612;2023-04-07T09:21:23;11.83;;;8.73;;
22794;SDS011;11564;50.920;11.612;2023-04-07T09:23:49;10.77;;;9.67;;
22794;SDS011;11564;50.920;11.612;2023-04-07T09:26:24;13.40;;;9.97;;
22794;SDS011;11564;50.920;11.612;2023-04-07T09:34:26;14.30;;;9.53;;
22794;SDS011;11564;50.920;11.612;2023-04-07T09:36:53;14.03;;;9.30;;
22794;SDS011;11564;50.920;11.612;2023-04-07T09:39:20;14.67;;;9.80;;
22794;SDS011;11564;50.920;11.612;2023-04-07T09:41:46;13.40;;;9.60;;
22794;SDS011;11564;50.920;11.612;2023-04-07T09:44:12;15.40;;;10.57;;
22794;SDS011;11564;50.920;11.612;2023-04-07T09:46:51;14.20;;;9.73;;
22794;SDS011;11564;50.920;11.612;2023-04-07T09:49:18;17.53;;;8.90;;
22794;SDS011;11564;50.920;11.612;2023-04-07T09:54:30;18.30;;;10.27;;
22794;SDS011;11564;50.920;11.612;2023-04-07T09:56:58;15.83;;;10.87;;
22794;SDS011;11564;50.920;11.612;2023-04-07T09:59:25;13.07;;;9.43;;
22794;SDS011;11564;50.920;11.612;2023-04-07T10:01:52;12.83;;;9.23;;
22794;SDS011;11564;50.920;11.612;2023-04-07T10:04:19;13.27;;;9.87;;
22794;SDS011;11564;50.920;11.612;2023-04-07T10:06:45;17.40;;;10.00;;
22794;SDS011;11564;50.920;11.612;2023-04-07T10:09:11;17.20;;;9.93;;
22794;SDS011;11564;50.920;11.612;2023-04-07T10:11:38;16.30;;;10.50;;
22794;SDS011;11564;50.920;11.612;2023-04-07T10:14:06;17.43;;;10.63;;
22794;SDS011;11564;50.920;11.612;2023-04-07T10:16:33;14.93;;;9.60;;
22794;SDS011;11564;50.920;11.612;2023-04-07T10:19:00;19.93;;;10.27;;
22794;SDS011;11564;50.920;11.612;2023-04-07T10:21:26;16.20;;;10.00;;
22794;SDS011;11564;50.920;11.612;2023-04-07T10:23:55;17.30;;;10.10;;
22794;SDS011;11564;50.920;11.612;2023-04-07T10:26:29;14.60;;;10.20;;
22794;SDS011;11564;50.920;11.612;2023-04-07T10:28:59;15.77;;;10.50;;
22794;SDS011;11564;50.920;11.612;2023-04-07T10:31:30;15.53;;;10.53;;
22794;SDS011;11564;50.920;11.612;2023-04-07T10:33:56;16.97;;;10.53;;
22794;SDS011;11564;50.920;11.612;2023-04-07T10:36:22;21.50;;;10.80;;
22794;SDS011;11564;50.920;11.612;2023-04-07T10:41:32;15.13;;;10.17;;
22794;SDS011;11564;50.920;11.612;2023-04-07T10:44:05;16.20;;;10.20;;
22794;SDS011;11564;50.920;11.612;2023-04-07T10:49:13;13.40;;;8.07;;
22794;SDS011;11564;50.920;11.612;2023-04-07T10:51:40;15.67;;;8.90;;
22794;SDS011;11564;50.920;11.612;2023-04-07T10:59:27;15.90;;;9.97;;
22794;SDS011;11564;50.920;11.612;2023-04-07T11:04:37;13.97;;;9.47;;
22794;SDS011;11564;50.920;11.612;2023-04-07T11:07:03;12.90;;;9.33;;
22794;SDS011;11564;50.920;11.612;2023-04-07T11:09:28;13.97;;;8.77;;
22794;SDS011;11564;50.920;11.612;2023-04-07T11:11:54;14.60;;;9.23;;
22794;SDS011;11564;50.920;11.612;2023-04-07T11:14:30;10.70;;;8.20;;
22794;SDS011;11564;50.920;11.612;2023-04-07T11:16:57;13.77;;;8.67;;
22794;SDS011;11564;50.920;11.612;2023-04-07T11:19:24;13.30;;;9.10;;
22794;SDS011;11564;50.920;11.612;2023-04-07T11:21:50;11.00;;;8.30;;
22794;SDS011;11564;50.920;11.612;2023-04-07T11:24:39;9.60;;;8.60;;
22794;SDS011;11564;50.920;11.612;2023-04-07T11:27:09;14.83;;;9.37;;
22794;SDS011;11564;50.920;11.612;2023-04-07T11:29:37;13.27;;;8.67;;
22794;SDS011;11564;50.920;11.612;2023-04-07T11:32:02;13.20;;;9.27;;
22794;SDS011;11564;50.920;11.612;2023-04-07T11:34:29;12.63;;;9.00;;
22794;SDS011;11564;50.920;11.612;2023-04-07T11:36:56;16.20;;;9.37;;
22794;SDS011;11564;50.920;11.612;2023-04-07T11:39:24;11.40;;;8.23;;
22794;SDS011;11564;50.920;11.612;2023-04-07T11:41:55;10.27;;;8.10;;
22794;SDS011;11564;50.920;11.612;2023-04-07T11:44:21;10.00;;;8.40;;
22794;SDS011;11564;50.920;11.612;2023-04-07T11:46:53;11.47;;;8.70;;
22794;SDS011;11564;50.920;11.612;2023-04-07T11:49:27;11.70;;;8.70;;
22794;SDS011;11564;50.920;11.612;2023-04-07T11:52:00;8.97;;;8.07;;
22794;SDS011;11564;50.920;11.612;2023-04-07T11:54:27;8.90;;;7.90;;
22794;SDS011;11564;50.920;11.612;2023-04-07T11:57:06;9.00;;;8.00;;
22794;SDS011;11564;50.920;11.612;2023-04-07T11:59:34;11.30;;;8.27;;
22794;SDS011;11564;50.920;11.612;2023-04-07T12:02:00;11.00;;;8.40;;
22794;SDS011;11564;50.920;11.612;2023-04-07T12:04:26;10.37;;;8.50;;
22794;SDS011;11564;50.920;11.612;2023-04-07T12:06:51;11.70;;;8.87;;
22794;SDS011;11564;50.920;11.612;2023-04-07T12:09:28;10.93;;;8.87;;
22794;SDS011;11564;50.920;11.612;2023-04-07T12:11:55;11.20;;;8.40;;
22794;SDS011;11564;50.920;11.612;2023-04-07T12:14:21;10.33;;;7.90;;
22794;SDS011;11564;50.920;11.612;2023-04-07T12:16:48;8.07;;;7.20;;
22794;SDS011;11564;50.920;11.612;2023-04-07T12:19:14;12.70;;;8.30;;
22794;SDS011;11564;50.920;11.612;2023-04-07T12:21:40;9.37;;;7.60;;
22794;SDS011;11564;50.920;11.612;2023-04-07T12:24:06;11.33;;;7.77;;
22794;SDS011;11564;50.920;11.612;2023-04-07T12:26:32;10.00;;;7.07;;
22794;SDS011;11564;50.920;11.612;2023-04-07T12:28:57;10.53;;;6.80;;
22794;SDS011;11564;50.920;11.612;2023-04-07T12:31:29;8.80;;;7.67;;
22794;SDS011;11564;50.920;11.612;2023-04-07T12:33:57;9.00;;;6.73;;
22794;SDS011;11564;50.920;11.612;2023-04-07T12:36:23;13.50;;;7.70;;
22794;SDS011;11564;50.920;11.612;2023-04-07T12:38:53;8.60;;;7.40;;
22794;SDS011;11564;50.920;11.612;2023-04-07T12:41:19;9.17;;;7.20;;
22794;SDS011;11564;50.920;11.612;2023-04-07T12:43:45;8.83;;;6.83;;
22794;SDS011;11564;50.920;11.612;2023-04-07T12:46:11;10.07;;;7.77;;
22794;SDS011;11564;50.920;11.612;2023-04-07T12:48:37;7.40;;;5.87;;
22794;SDS011;11564;50.920;11.612;2023-04-07T12:51:02;7.83;;;7.03;;
22794;SDS011;11564;50.920;11.612;2023-04-07T12:53:28;11.93;;;7.97;;
22794;SDS011;11564;50.920;11.612;2023-04-07T12:55:54;7.83;;;6.40;;
22794;SDS011;11564;50.920;11.612;2023-04-07T12:58:20;9.57;;;6.90;;
22794;SDS011;11564;50.920;11.612;2023-04-07T13:00:46;8.60;;;7.00;;
22794;SDS011;11564;50.920;11.612;2023-04-07T13:03:12;7.67;;;6.53;;
22794;SDS011;11564;50.920;11.612;2023-04-07T13:05:38;9.20;;;6.83;;
22794;SDS011;11564;50.920;11.612;2023-04-07T13:08:03;7.00;;;5.97;;
22794;SDS011;11564;50.920;11.612;2023-04-07T13:10:29;6.77;;;6.17;;
22794;SDS011;11564;50.920;11.612;2023-04-07T13:12:55;10.77;;;7.00;;
22794;SDS011;11564;50.920;11.612;2023-04-07T13:15:21;7.87;;;7.07;;
22794;SDS011;11564;50.920;11.612;2023-04-07T13:17:46;9.73;;;6.10;;
22794;SDS011;11564;50.920;11.612;2023-04-07T13:20:12;7.13;;;5.30;;
22794;SDS011;11564;50.920;11.612;2023-04-07T13:22:38;5.63;;;5.13;;
22794;SDS011;11564;50.920;11.612;2023-04-07T13:25:04;7.57;;;5.80;;
22794;SDS011;11564;50.920;11.612;2023-04-07T13:27:30;5.23;;;4.83;;
22794;SDS011;11564;50.920;11.612;2023-04-07T13:29:55;4.73;;;4.43;;
22794;SDS011;11564;50.920;11.612;2023-04-07T13:32:21;6.33;;;5.40;;
22794;SDS011;11564;50.920;11.612;2023-04-07T13:34:47;5.33;;;4.93;;
22794;SDS011;11564;50.920;11.612;2023-04-07T13:37:13;8.27;;;5.73;;
22794;SDS011;11564;50.920;11.612;2023-04-07T13:39:40;5.80;;;5.30;;
22794;SDS011;11564;50.920;11.612;2023-04-07T13:42:06;6.07;;;5.47;;
22794;SDS011;11564;50.920;11.612;2023-04-07T13:44:33;11.10;;;5.87;;
22794;SDS011;11564;50.920;11.612;2023-04-07T13:47:01;6.57;;;5.70;;
22794;SDS011;11564;50.920;11.612;2023-04-07T13:49:27;8.00;;;4.77;;
22794;SDS011;11564;50.920;11.612;2023-04-07T13:51:53;5.37;;;4.97;;
22794;SDS011;11564;50.920;11.612;2023-04-07T13:54:19;5.80;;;5.40;;
22794;SDS011;11564;50.920;11.612;2023-04-07T13:56:45;5.97;;;5.37;;
22794;SDS011;11564;50.920;11.612;2023-04-07T13:59:13;5.60;;;5.20;;
22794;SDS011;11564;50.920;11.612;2023-04-07T14:01:38;6.00;;;5.50;;
22794;SDS011;11564;50.920;11.612;2023-04-07T14:04:04;5.80;;;5.40;;
22794;SDS011;11564;50.920;11.612;2023-04-07T14:06:30;5.37;;;4.60;;
22794;SDS011;11564;50.920;11.612;2023-04-07T14:08:57;6.70;;;6.00;;
22794;SDS011;11564;50.920;11.612;2023-04-07T14:11:23;5.97;;;5.10;;
22794;SDS011;11564;50.920;11.612;2023-04-07T14:13:49;7.53;;;6.07;;
22794;SDS011;11564;50.920;11.612;2023-04-07T14:16:15;5.77;;;5.37;;
22794;SDS011;11564;50.920;11.612;2023-04-07T14:18:42;5.60;;;5.20;;
22794;SDS011;11564;50.920;11.612;2023-04-07T14:21:08;10.70;;;7.20;;
22794;SDS011;11564;50.920;11.612;2023-04-07T14:23:34;6.27;;;5.67;;
22794;SDS011;11564;50.920;11.612;2023-04-07T14:26:00;5.93;;;5.43;;
22794;SDS011;11564;50.920;11.612;2023-04-07T14:28:26;5.77;;;5.37;;
22794;SDS011;11564;50.920;11.612;2023-04-07T14:30:52;5.57;;;5.17;;
22794;SDS011;11564;50.920;11.612;2023-04-07T14:33:18;6.10;;;5.50;;
22794;SDS011;11564;50.920;11.612;2023-04-07T14:35:44;6.27;;;5.73;;
22794;SDS011;11564;50.920;11.612;2023-04-07T14:38:10;6.40;;;5.80;;
22794;SDS011;11564;50.920;11.612;2023-04-07T14:40:36;7.03;;;6.43;;
22794;SDS011;11564;50.920;11.612;2023-04-07T14:43:01;7.93;;;6.07;;
22794;SDS011;11564;50.920;11.612;2023-04-07T14:45:28;7.07;;;5.53;;
22794;SDS011;11564;50.920;11.612;2023-04-07T14:47:53;10.90;;;7.07;;
22794;SDS011;11564;50.920;11.612;2023-04-07T14:50:19;6.00;;;5.50;;